createdAt,value
2022-09-15T00:00:23.006Z,11.15
2022-09-15T00:01:23.028Z,11.13
2022-09-15T00:02:23.184Z,11.13
2022-09-15T00:03:22.958Z,11.12
2022-09-15T00:04:22.952Z,11.10
2022-09-15T00:05:22.949Z,11.08
2022-09-15T00:06:22.929Z,11.07
2022-09-15T00:07:22.898Z,11.06
2022-09-15T00:08:22.892Z,11.06
2022-09-15T00:09:22.887Z,11.06
2022-09-15T00:10:22.867Z,11.05
2022-09-15T00:11:22.841Z,11.04
2022-09-15T00:12:22.825Z,11.03
2022-09-15T00:13:22.837Z,11.03
2022-09-15T00:14:22.796Z,11.04
2022-09-15T00:15:22.812Z,11.03
2022-09-15T00:16:22.822Z,11.02
2022-09-15T00:17:22.775Z,11.00
2022-09-15T00:18:22.744Z,10.98
2022-09-15T00:19:22.758Z,10.98
2022-09-15T00:20:22.730Z,10.99
2022-09-15T00:21:22.742Z,11.00
2022-09-15T00:22:22.703Z,11.01
2022-09-15T00:23:22.748Z,11.03
2022-09-15T00:24:22.689Z,11.04
2022-09-15T00:25:22.684Z,11.05
2022-09-15T00:26:22.666Z,11.05
2022-09-15T00:27:22.644Z,11.03
2022-09-15T00:28:22.650Z,11.01
2022-09-15T00:29:22.636Z,10.99
2022-09-15T00:30:22.604Z,10.96
2022-09-15T00:31:22.663Z,10.92
2022-09-15T00:32:22.577Z,10.88
2022-09-15T00:33:22.562Z,10.83
2022-09-15T00:34:22.558Z,10.82
2022-09-15T00:35:22.547Z,10.85
2022-09-15T00:36:22.548Z,10.88
2022-09-15T00:37:22.526Z,10.90
2022-09-15T00:38:22.501Z,10.92
2022-09-15T00:39:22.499Z,10.93
2022-09-15T00:40:22.516Z,10.93
2022-09-15T00:41:22.463Z,10.93
2022-09-15T00:42:22.452Z,10.92
2022-09-15T00:43:22.439Z,10.91
2022-09-15T00:44:22.414Z,10.92
2022-09-15T00:45:22.426Z,10.93
2022-09-15T00:46:22.424Z,10.95
2022-09-15T00:47:22.403Z,10.94
2022-09-15T00:48:22.375Z,10.94
2022-09-15T00:49:22.337Z,10.93
2022-09-15T00:50:22.342Z,10.92
2022-09-15T00:51:22.329Z,10.88
2022-09-15T00:52:22.337Z,10.84
2022-09-15T00:53:22.306Z,10.80
2022-09-15T00:54:22.297Z,10.77
2022-09-15T00:55:22.265Z,10.76
2022-09-15T00:56:22.265Z,10.74
2022-09-15T00:57:22.259Z,10.74
2022-09-15T00:58:22.252Z,10.74
2022-09-15T00:59:22.238Z,10.73
2022-09-15T01:00:22.206Z,10.73
2022-09-15T01:01:22.312Z,10.75
2022-09-15T01:02:22.227Z,10.75
2022-09-15T01:03:22.174Z,10.76
2022-09-15T01:04:22.173Z,10.76
2022-09-15T01:05:22.135Z,10.75
2022-09-15T01:06:22.109Z,10.74
2022-09-15T01:07:22.103Z,10.73
2022-09-15T01:08:22.107Z,10.73
2022-09-15T01:09:22.096Z,10.73
2022-09-15T01:10:22.064Z,10.72
2022-09-15T01:11:22.049Z,10.72
2022-09-15T01:12:22.035Z,10.70
2022-09-15T01:13:22.026Z,10.68
2022-09-15T01:14:22.045Z,10.65
2022-09-15T01:15:21.996Z,10.63
2022-09-15T01:16:22.027Z,10.61
2022-09-15T01:17:21.991Z,10.58
2022-09-15T01:18:21.974Z,10.54
2022-09-15T01:19:21.971Z,10.51
2022-09-15T01:20:21.963Z,10.48
2022-09-15T01:21:21.937Z,10.46
2022-09-15T01:22:21.898Z,10.44
2022-09-15T01:23:21.892Z,10.44
2022-09-15T01:24:21.893Z,10.44
2022-09-15T01:25:21.882Z,10.44
2022-09-15T01:26:21.892Z,10.46
2022-09-15T01:27:41.037Z,10.47
2022-09-15T01:28:21.841Z,10.47
2022-09-15T01:29:21.924Z,10.47
2022-09-15T01:30:21.799Z,10.46
2022-09-15T01:31:21.825Z,10.46
2022-09-15T01:32:21.798Z,10.46
2022-09-15T01:33:21.780Z,10.48
2022-09-15T01:34:21.743Z,10.50
2022-09-15T01:35:21.759Z,10.50
2022-09-15T01:36:21.734Z,10.51
2022-09-15T01:37:21.728Z,10.51
2022-09-15T01:38:21.692Z,10.52
2022-09-15T01:39:21.718Z,10.52
2022-09-15T01:40:21.760Z,10.51
2022-09-15T01:41:21.680Z,10.50
2022-09-15T01:42:21.666Z,10.50
2022-09-15T01:43:21.632Z,10.49
2022-09-15T01:44:21.622Z,10.48
2022-09-15T01:45:21.632Z,10.47
2022-09-15T01:46:21.600Z,10.45
2022-09-15T01:47:21.599Z,10.45
2022-09-15T01:48:21.570Z,10.45
2022-09-15T01:49:21.563Z,10.46
2022-09-15T01:50:21.552Z,10.47
2022-09-15T01:51:21.523Z,10.47
2022-09-15T01:52:21.526Z,10.46
2022-09-15T01:53:21.502Z,10.44
2022-09-15T01:54:21.478Z,10.44
2022-09-15T01:55:21.512Z,10.44
2022-09-15T01:56:21.454Z,10.43
2022-09-15T01:57:21.476Z,10.41
2022-09-15T01:58:21.453Z,10.38
2022-09-15T01:59:21.438Z,10.36
2022-09-15T02:00:21.425Z,10.35
2022-09-15T02:01:21.510Z,10.36
2022-09-15T02:02:21.421Z,10.37
2022-09-15T02:03:21.367Z,10.37
2022-09-15T02:04:21.368Z,10.38
2022-09-15T02:05:21.361Z,10.37
2022-09-15T02:06:21.356Z,10.36
2022-09-15T02:07:21.338Z,10.35
2022-09-15T02:08:21.309Z,10.34
2022-09-15T02:09:21.310Z,10.32
2022-09-15T02:10:21.267Z,10.30
2022-09-15T02:11:21.263Z,10.28
2022-09-15T02:12:21.257Z,10.26
2022-09-15T02:13:21.237Z,10.25
2022-09-15T02:14:21.221Z,10.24
2022-09-15T02:15:21.225Z,10.24
2022-09-15T02:16:21.259Z,10.24
2022-09-15T02:17:21.189Z,10.25
2022-09-15T02:18:21.190Z,10.26
2022-09-15T02:19:21.152Z,10.27
2022-09-15T02:20:21.154Z,10.27
2022-09-15T02:21:21.137Z,10.27
2022-09-15T02:22:21.123Z,10.25
2022-09-15T02:23:21.131Z,10.24
2022-09-15T02:24:21.110Z,10.24
2022-09-15T02:25:21.095Z,10.24
2022-09-15T02:26:21.060Z,10.25
2022-09-15T02:27:21.049Z,10.26
2022-09-15T02:28:21.044Z,10.27
2022-09-15T02:29:21.021Z,10.28
2022-09-15T02:30:21.033Z,10.30
2022-09-15T02:31:21.072Z,10.32
2022-09-15T02:32:20.982Z,10.36
2022-09-15T02:33:20.978Z,10.39
2022-09-15T02:34:20.970Z,10.41
2022-09-15T02:35:20.952Z,10.42
2022-09-15T02:36:20.939Z,10.43
2022-09-15T02:37:20.917Z,10.43
2022-09-15T02:38:20.906Z,10.43
2022-09-15T02:39:20.913Z,10.43
2022-09-15T02:40:20.922Z,10.42
2022-09-15T02:41:20.869Z,10.41
2022-09-15T02:42:20.850Z,10.40
2022-09-15T02:43:20.910Z,10.39
2022-09-15T02:44:20.853Z,10.38
2022-09-15T02:45:20.880Z,10.38
2022-09-15T02:46:20.802Z,10.38
2022-09-15T02:47:20.804Z,10.38
2022-09-15T02:48:20.786Z,10.39
2022-09-15T02:49:20.755Z,10.40
2022-09-15T02:50:20.747Z,10.42
2022-09-15T02:51:20.738Z,10.45
2022-09-15T02:52:20.734Z,10.46
2022-09-15T02:53:20.723Z,10.46
2022-09-15T02:54:20.689Z,10.46
2022-09-15T02:55:20.706Z,10.46
2022-09-15T02:56:20.670Z,10.45
2022-09-15T02:57:20.663Z,10.45
2022-09-15T02:58:20.659Z,10.44
2022-09-15T02:59:20.633Z,10.44
2022-09-15T03:00:20.615Z,10.43
2022-09-15T03:01:20.710Z,10.42
2022-09-15T03:02:20.809Z,10.42
2022-09-15T03:03:20.576Z,10.42
2022-09-15T03:04:20.574Z,10.41
2022-09-15T03:05:20.566Z,10.40
2022-09-15T03:06:20.539Z,10.39
2022-09-15T03:07:20.540Z,10.37
2022-09-15T03:08:20.505Z,10.34
2022-09-15T03:09:20.496Z,10.33
2022-09-15T03:10:20.497Z,10.32
2022-09-15T03:11:20.464Z,10.29
2022-09-15T03:12:20.471Z,10.25
2022-09-15T03:13:20.461Z,10.21
2022-09-15T03:14:20.446Z,10.19
2022-09-15T03:15:20.434Z,10.16
2022-09-15T03:16:20.445Z,10.13
2022-09-15T03:17:20.397Z,10.10
2022-09-15T03:18:20.366Z,10.07
2022-09-15T03:19:20.366Z,10.05
2022-09-15T03:20:20.355Z,10.04
2022-09-15T03:21:20.340Z,10.01
2022-09-15T03:22:20.333Z,9.99
2022-09-15T03:23:20.321Z,9.97
2022-09-15T03:24:20.302Z,9.96
2022-09-15T03:25:20.283Z,9.96
2022-09-15T03:26:20.280Z,9.95
2022-09-15T03:27:20.282Z,9.94
2022-09-15T03:28:20.279Z,9.92
2022-09-15T03:29:20.246Z,9.91
2022-09-15T03:30:20.245Z,9.89
2022-09-15T03:31:20.304Z,9.87
2022-09-15T03:32:20.212Z,9.86
2022-09-15T03:33:20.209Z,9.84
2022-09-15T03:34:20.158Z,9.81
2022-09-15T03:35:20.179Z,9.76
2022-09-15T03:36:20.132Z,9.74
2022-09-15T03:37:20.120Z,9.72
2022-09-15T03:38:20.126Z,9.71
2022-09-15T03:39:20.113Z,9.71
2022-09-15T03:40:20.193Z,9.71
2022-09-15T03:41:20.117Z,9.72
2022-09-15T03:42:20.070Z,9.74
2022-09-15T03:43:20.047Z,9.74
2022-09-15T03:44:20.024Z,9.72
2022-09-15T03:45:20.040Z,9.68
2022-09-15T03:46:20.065Z,9.64
2022-09-15T03:47:20.035Z,9.62
2022-09-15T03:48:19.998Z,9.61
2022-09-15T03:49:19.979Z,9.61
2022-09-15T03:50:19.950Z,9.59
2022-09-15T03:51:19.977Z,9.55
2022-09-15T03:52:19.932Z,9.52
2022-09-15T03:53:19.945Z,9.50
2022-09-15T03:54:19.964Z,9.47
2022-09-15T03:55:19.905Z,9.42
2022-09-15T03:56:19.911Z,9.36
2022-09-15T03:57:19.879Z,9.32
2022-09-15T03:58:19.886Z,9.29
2022-09-15T03:59:19.857Z,9.26
2022-09-15T04:00:19.830Z,9.24
2022-09-15T04:01:19.899Z,9.22
2022-09-15T04:02:19.897Z,9.21
2022-09-15T04:03:19.788Z,9.19
2022-09-15T04:04:19.770Z,9.15
2022-09-15T04:05:19.775Z,9.10
2022-09-15T04:06:19.778Z,9.07
2022-09-15T04:07:19.775Z,9.05
2022-09-15T04:08:19.742Z,9.03
2022-09-15T04:09:20.456Z,9.02
2022-09-15T04:10:19.700Z,8.99
2022-09-15T04:11:19.674Z,8.94
2022-09-15T04:12:19.654Z,8.90
2022-09-15T04:13:19.686Z,8.92
2022-09-15T04:14:19.629Z,8.98
2022-09-15T04:15:19.645Z,9.06
2022-09-15T04:16:19.677Z,9.14
2022-09-15T04:17:19.602Z,9.19
2022-09-15T04:18:19.600Z,9.23
2022-09-15T04:19:19.588Z,9.24
2022-09-15T04:20:19.571Z,9.21
2022-09-15T04:21:19.538Z,9.18
2022-09-15T04:22:19.554Z,9.14
2022-09-15T04:23:19.544Z,9.14
2022-09-15T04:24:19.504Z,9.17
2022-09-15T04:25:19.505Z,9.21
2022-09-15T04:26:19.485Z,9.25
2022-09-15T04:27:19.544Z,9.28
2022-09-15T04:28:19.531Z,9.30
2022-09-15T04:29:19.514Z,9.31
2022-09-15T04:30:19.441Z,9.30
2022-09-15T04:31:19.520Z,9.28
2022-09-15T04:32:19.458Z,9.24
2022-09-15T04:33:19.415Z,9.21
2022-09-15T04:34:19.383Z,9.18
2022-09-15T04:35:19.357Z,9.14
2022-09-15T04:36:19.364Z,9.10
2022-09-15T04:37:19.322Z,9.11
2022-09-15T04:38:19.317Z,9.14
2022-09-15T04:39:19.317Z,9.19
2022-09-15T04:40:19.321Z,9.26
2022-09-15T04:41:19.292Z,9.31
2022-09-15T04:42:19.269Z,9.33
2022-09-15T04:43:19.285Z,9.34
2022-09-15T04:44:19.237Z,9.32
2022-09-15T04:45:19.264Z,9.30
2022-09-15T04:46:19.300Z,9.27
2022-09-15T04:47:19.191Z,9.26
2022-09-15T04:48:19.183Z,9.25
2022-09-15T04:49:19.167Z,9.24
2022-09-15T04:50:19.181Z,9.23
2022-09-15T04:51:19.179Z,9.23
2022-09-15T04:52:19.143Z,9.27
2022-09-15T04:53:19.142Z,9.33
2022-09-15T04:54:19.120Z,9.37
2022-09-15T04:55:19.102Z,9.42
2022-09-15T04:56:19.102Z,9.47
2022-09-15T04:57:19.115Z,9.48
2022-09-15T04:58:19.055Z,9.48
2022-09-15T04:59:19.049Z,9.49
2022-09-15T05:00:19.077Z,9.50
2022-09-15T05:01:19.213Z,9.52
2022-09-15T05:02:19.156Z,9.54
2022-09-15T05:03:19.017Z,9.55
2022-09-15T05:04:19.011Z,9.56
2022-09-15T05:05:19.009Z,9.58
2022-09-15T05:06:19.021Z,9.60
2022-09-15T05:07:18.978Z,9.60
2022-09-15T05:08:18.987Z,9.60
2022-09-15T05:09:18.902Z,9.60
2022-09-15T05:10:18.937Z,9.60
2022-09-15T05:11:18.925Z,9.60
2022-09-15T05:12:18.919Z,9.60
2022-09-15T05:13:18.903Z,9.60
2022-09-15T05:14:18.873Z,9.61
2022-09-15T05:15:18.845Z,9.62
2022-09-15T05:16:18.897Z,9.62
2022-09-15T05:17:18.864Z,9.62
2022-09-15T05:18:18.827Z,9.63
2022-09-15T05:19:18.845Z,9.66
2022-09-15T05:20:18.784Z,9.69
2022-09-15T05:21:18.743Z,9.71
2022-09-15T05:22:20.030Z,9.73
2022-09-15T05:23:18.743Z,9.75
2022-09-15T05:24:18.707Z,9.77
2022-09-15T05:25:18.740Z,9.78
2022-09-15T05:26:18.684Z,9.79
2022-09-15T05:27:18.682Z,9.79
2022-09-15T05:28:18.916Z,9.79
2022-09-15T05:29:18.640Z,9.79
2022-09-15T05:30:44.672Z,9.79
2022-09-15T05:31:18.687Z,9.79
2022-09-15T05:32:18.751Z,9.79
2022-09-15T05:33:18.595Z,9.81
2022-09-15T05:34:18.585Z,9.84
2022-09-15T05:35:18.556Z,9.87
2022-09-15T05:36:18.551Z,9.89
2022-09-15T05:37:19.833Z,9.91
2022-09-15T05:38:18.537Z,9.96
2022-09-15T05:39:18.529Z,10.01
2022-09-15T05:40:18.599Z,10.05
2022-09-15T05:41:18.507Z,10.07
2022-09-15T05:42:18.489Z,10.09
2022-09-15T05:43:18.460Z,10.10
2022-09-15T05:44:18.449Z,10.12
2022-09-15T05:45:18.441Z,10.16
2022-09-15T05:46:18.531Z,10.20
2022-09-15T05:47:18.417Z,10.23
2022-09-15T05:48:18.398Z,10.27
2022-09-15T05:49:18.389Z,10.31
2022-09-15T05:50:18.381Z,10.33
2022-09-15T05:51:18.370Z,10.35
2022-09-15T05:52:18.347Z,10.38
2022-09-15T05:53:18.341Z,10.41
2022-09-15T05:54:18.356Z,10.44
2022-09-15T05:55:18.329Z,10.47
2022-09-15T05:56:18.291Z,10.49
2022-09-15T05:57:18.312Z,10.52
2022-09-15T05:58:18.312Z,10.56
2022-09-15T05:59:18.258Z,10.59
2022-09-15T06:00:18.234Z,10.62
2022-09-15T06:01:18.232Z,10.65
2022-09-15T06:02:18.329Z,10.69
2022-09-15T06:03:18.252Z,10.72
2022-09-15T06:04:18.208Z,10.75
2022-09-15T06:05:18.207Z,10.78
2022-09-15T06:06:18.186Z,10.81
2022-09-15T06:07:18.161Z,10.84
2022-09-15T06:08:18.160Z,10.87
2022-09-15T06:09:18.140Z,10.90
2022-09-15T06:10:18.103Z,10.94
2022-09-15T06:11:18.098Z,10.97
2022-09-15T06:12:18.097Z,11.01
2022-09-15T06:13:18.072Z,11.06
2022-09-15T06:14:18.066Z,11.11
2022-09-15T06:15:18.026Z,11.15
2022-09-15T06:16:18.060Z,11.19
2022-09-15T06:17:18.002Z,11.22
2022-09-15T06:18:17.994Z,11.24
2022-09-15T06:19:17.998Z,11.26
2022-09-15T06:20:17.984Z,11.27
2022-09-15T06:21:17.959Z,11.28
2022-09-15T06:22:17.964Z,11.28
2022-09-15T06:23:17.928Z,11.30
2022-09-15T06:24:17.921Z,11.31
2022-09-15T06:25:17.910Z,11.33
2022-09-15T06:26:17.893Z,11.36
2022-09-15T06:27:17.899Z,11.38
2022-09-15T06:28:17.857Z,11.41
2022-09-15T06:29:17.880Z,11.45
2022-09-15T06:30:17.893Z,11.50
2022-09-15T06:31:17.877Z,11.55
2022-09-15T06:32:17.834Z,11.60
2022-09-15T06:33:17.807Z,11.65
2022-09-15T06:34:17.798Z,11.70
2022-09-15T06:35:17.771Z,11.75
2022-09-15T06:36:17.790Z,11.80
2022-09-15T06:37:17.755Z,11.85
2022-09-15T06:38:17.730Z,11.91
2022-09-15T06:39:17.728Z,11.96
2022-09-15T06:40:17.764Z,12.03
2022-09-15T06:41:17.713Z,12.11
2022-09-15T06:42:17.690Z,12.18
2022-09-15T06:43:17.662Z,12.26
2022-09-15T06:44:17.656Z,12.34
2022-09-15T06:45:17.649Z,12.43
2022-09-15T06:46:17.730Z,12.52
2022-09-15T06:47:17.617Z,12.61
2022-09-15T06:48:24.484Z,12.70
2022-09-15T06:49:17.607Z,12.79
2022-09-15T06:50:17.573Z,12.86
2022-09-15T06:51:17.559Z,12.93
2022-09-15T06:52:17.573Z,12.99
2022-09-15T06:53:17.549Z,13.04
2022-09-15T06:54:17.540Z,13.11
2022-09-15T06:55:17.521Z,13.20
2022-09-15T06:56:17.506Z,13.30
2022-09-15T06:57:17.512Z,13.39
2022-09-15T06:58:17.486Z,13.46
2022-09-15T06:59:17.449Z,13.50
2022-09-15T07:00:17.481Z,13.52
2022-09-15T07:01:17.424Z,13.54
2022-09-15T07:02:17.496Z,13.58
2022-09-15T07:03:17.489Z,13.62
2022-09-15T07:04:17.407Z,13.64
2022-09-15T07:05:17.383Z,13.66
2022-09-15T07:06:17.376Z,13.69
2022-09-15T07:07:17.337Z,13.71
2022-09-15T07:08:17.334Z,13.72
2022-09-15T07:09:17.322Z,13.73
2022-09-15T07:10:17.326Z,13.73
2022-09-15T07:11:17.286Z,13.75
2022-09-15T07:12:17.301Z,13.78
2022-09-15T07:13:17.293Z,13.84
2022-09-15T07:14:17.267Z,13.91
2022-09-15T07:15:17.248Z,13.99
2022-09-15T07:16:17.254Z,14.10
2022-09-15T07:17:17.205Z,14.20
2022-09-15T07:18:17.232Z,14.30
2022-09-15T07:19:17.192Z,14.38
2022-09-15T07:20:17.205Z,14.45
2022-09-15T07:21:17.188Z,14.52
2022-09-15T07:22:17.166Z,14.59
2022-09-15T07:23:17.153Z,14.66
2022-09-15T07:24:17.153Z,14.71
2022-09-15T07:25:17.096Z,14.73
2022-09-15T07:26:17.104Z,14.71
2022-09-15T07:27:17.091Z,14.71
2022-09-15T07:28:17.088Z,14.73
2022-09-15T07:29:17.090Z,14.76
2022-09-15T07:30:17.058Z,14.78
2022-09-15T07:31:17.072Z,14.80
2022-09-15T07:32:17.065Z,14.85
2022-09-15T07:33:17.011Z,14.89
2022-09-15T07:34:16.987Z,14.97
2022-09-15T07:35:17.024Z,15.08
2022-09-15T07:36:16.985Z,15.16
2022-09-15T07:37:16.981Z,15.19
2022-09-15T07:38:16.960Z,15.20
2022-09-15T07:39:16.943Z,15.16
2022-09-15T07:40:17.034Z,15.13
2022-09-15T07:41:16.887Z,15.10
2022-09-15T07:42:16.894Z,15.09
2022-09-15T07:43:16.896Z,15.13
2022-09-15T07:44:16.858Z,15.19
2022-09-15T07:45:16.864Z,15.23
2022-09-15T07:46:16.911Z,15.26
2022-09-15T07:47:16.819Z,15.29
2022-09-15T07:48:16.826Z,15.32
2022-09-15T07:49:16.821Z,15.38
2022-09-15T07:50:16.782Z,15.47
2022-09-15T07:51:16.769Z,15.57
2022-09-15T07:52:16.780Z,15.67
2022-09-15T07:53:16.772Z,15.78
2022-09-15T07:54:21.077Z,15.89
2022-09-15T07:55:16.727Z,15.97
2022-09-15T07:56:16.695Z,16.01
2022-09-15T07:57:16.679Z,16.05
2022-09-15T07:58:16.686Z,16.08
2022-09-15T07:59:16.686Z,16.04
2022-09-15T08:00:16.659Z,15.90
2022-09-15T08:01:16.743Z,15.77
2022-09-15T08:02:16.675Z,15.70
2022-09-15T08:03:16.614Z,15.68
2022-09-15T08:04:16.594Z,15.69
2022-09-15T08:05:16.585Z,15.72
2022-09-15T08:06:16.583Z,15.73
2022-09-15T08:07:16.567Z,15.72
2022-09-15T08:08:16.574Z,15.73
2022-09-15T08:09:16.549Z,15.73
2022-09-15T08:10:16.596Z,15.77
2022-09-15T08:11:18.883Z,15.89
2022-09-15T08:12:16.486Z,16.10
2022-09-15T08:13:16.515Z,16.39
2022-09-15T08:14:16.482Z,16.63
2022-09-15T08:15:16.465Z,16.72
2022-09-15T08:16:16.484Z,16.68
2022-09-15T08:17:16.419Z,16.63
2022-09-15T08:18:16.429Z,16.62
2022-09-15T08:19:16.409Z,16.66
2022-09-15T08:20:16.405Z,16.79
2022-09-15T08:21:16.399Z,16.97
2022-09-15T08:22:16.376Z,17.12
2022-09-15T08:23:16.351Z,17.11
2022-09-15T08:24:16.329Z,16.98
2022-09-15T08:25:16.315Z,16.93
2022-09-15T08:26:16.297Z,16.93
2022-09-15T08:27:16.309Z,16.96
2022-09-15T08:28:16.275Z,16.96
2022-09-15T08:29:16.254Z,16.96
2022-09-15T08:30:16.277Z,17.05
2022-09-15T08:31:16.260Z,17.16
2022-09-15T08:32:16.225Z,17.20
2022-09-15T08:33:16.207Z,17.18
2022-09-15T08:34:16.228Z,17.11
2022-09-15T08:35:16.217Z,17.02
2022-09-15T08:36:16.198Z,16.99
2022-09-15T08:37:16.155Z,16.98
2022-09-15T08:38:16.181Z,16.83
2022-09-15T08:39:16.153Z,16.61
2022-09-15T08:40:16.198Z,16.48
2022-09-15T08:41:16.111Z,16.40
2022-09-15T08:42:16.117Z,16.38
2022-09-15T08:43:16.081Z,16.50
2022-09-15T08:44:16.342Z,16.62
2022-09-15T08:45:16.277Z,16.70
2022-09-15T08:46:16.076Z,16.77
2022-09-15T08:47:16.081Z,16.80
2022-09-15T08:48:16.620Z,16.83
2022-09-15T08:49:26.812Z,16.85
2022-09-15T08:50:15.984Z,16.88
2022-09-15T08:51:15.969Z,16.92
2022-09-15T08:52:15.950Z,16.93
2022-09-15T08:53:15.978Z,16.98
2022-09-15T08:54:15.951Z,17.11
2022-09-15T08:55:15.990Z,17.27
2022-09-15T08:56:15.896Z,17.38
2022-09-15T08:57:15.888Z,17.42
2022-09-15T08:58:15.883Z,17.42
2022-09-15T08:59:15.884Z,17.34
2022-09-15T09:00:15.842Z,17.24
2022-09-15T09:01:15.938Z,17.16
2022-09-15T09:02:15.837Z,17.05
2022-09-15T09:03:15.821Z,16.87
2022-09-15T09:04:18.101Z,16.68
2022-09-15T09:05:15.804Z,16.50
2022-09-15T09:06:15.783Z,16.32
2022-09-15T09:07:15.796Z,16.21
2022-09-15T09:08:15.768Z,16.20
2022-09-15T09:09:15.742Z,16.25
2022-09-15T09:10:15.730Z,16.31
2022-09-15T09:11:15.705Z,16.36
2022-09-15T09:12:15.711Z,16.40
2022-09-15T09:13:15.745Z,16.44
2022-09-15T09:14:15.675Z,16.43
2022-09-15T09:15:15.699Z,16.36
2022-09-15T09:16:15.695Z,16.29
2022-09-15T09:17:15.686Z,16.29
2022-09-15T09:18:15.655Z,16.37
2022-09-15T09:19:15.635Z,16.46
2022-09-15T09:20:15.638Z,16.55
2022-09-15T09:21:15.658Z,16.61
2022-09-15T09:22:15.643Z,16.67
2022-09-15T09:23:15.617Z,16.62
2022-09-15T09:24:15.578Z,16.51
2022-09-15T09:25:26.536Z,16.43
2022-09-15T09:26:15.548Z,16.41
2022-09-15T09:27:15.552Z,16.45
2022-09-15T09:28:15.536Z,16.49
2022-09-15T09:29:15.512Z,16.52
2022-09-15T09:30:15.487Z,16.56
2022-09-15T09:31:15.563Z,16.57
2022-09-15T09:32:18.680Z,16.54
2022-09-15T09:33:15.466Z,16.48
2022-09-15T09:34:15.419Z,16.42
2022-09-15T09:35:15.406Z,16.39
2022-09-15T09:36:15.378Z,16.41
2022-09-15T09:37:15.374Z,16.46
2022-09-15T09:38:15.364Z,16.53
2022-09-15T09:39:15.362Z,16.55
2022-09-15T09:40:15.362Z,16.51
2022-09-15T09:41:15.327Z,16.44
2022-09-15T09:42:15.335Z,16.41
2022-09-15T09:43:15.286Z,16.43
2022-09-15T09:44:15.306Z,16.49
2022-09-15T09:45:15.262Z,16.53
2022-09-15T09:46:15.408Z,16.56
2022-09-15T09:47:15.279Z,16.57
2022-09-15T09:48:15.235Z,16.61
2022-09-15T09:49:15.671Z,16.71
2022-09-15T09:50:15.226Z,16.79
2022-09-15T09:51:15.184Z,16.78
2022-09-15T09:52:18.914Z,16.77
2022-09-15T09:53:15.187Z,16.79
2022-09-15T09:54:15.159Z,16.83
2022-09-15T09:55:15.130Z,16.86
2022-09-15T09:56:15.125Z,16.87
2022-09-15T09:57:15.133Z,16.91
2022-09-15T09:58:15.148Z,16.97
2022-09-15T09:59:15.132Z,17.02
2022-09-15T10:00:15.083Z,17.03
2022-09-15T10:01:15.165Z,17.00
2022-09-15T10:02:15.110Z,17.00
2022-09-15T10:03:15.076Z,17.06
2022-09-15T10:04:15.009Z,17.18
2022-09-15T10:05:15.039Z,17.42
2022-09-15T10:06:14.986Z,17.73
2022-09-15T10:07:15.021Z,17.96
2022-09-15T10:08:15.016Z,18.05
2022-09-15T10:09:15.013Z,17.96
2022-09-15T10:10:14.968Z,17.95
2022-09-15T10:11:14.934Z,18.14
2022-09-15T10:12:14.918Z,18.41
2022-09-15T10:13:14.937Z,18.63
2022-09-15T10:14:14.945Z,18.64
2022-09-15T10:15:14.911Z,18.43
2022-09-15T10:16:14.928Z,18.26
2022-09-15T10:17:14.917Z,18.25
2022-09-15T10:18:14.865Z,18.35
2022-09-15T10:19:14.836Z,18.49
2022-09-15T10:20:14.834Z,18.59
2022-09-15T10:21:14.885Z,18.68
2022-09-15T10:22:14.767Z,18.80
2022-09-15T10:23:14.780Z,18.96
2022-09-15T10:24:18.000Z,19.21
2022-09-15T10:25:14.755Z,19.32
2022-09-15T10:26:14.734Z,19.26
2022-09-15T10:27:14.748Z,19.17
2022-09-15T10:28:14.705Z,19.10
2022-09-15T10:29:14.714Z,18.97
2022-09-15T10:30:14.672Z,18.91
2022-09-15T10:31:14.774Z,19.05
2022-09-15T10:32:14.689Z,19.28
2022-09-15T10:33:14.654Z,19.38
2022-09-15T10:34:14.642Z,19.39
2022-09-15T10:35:14.626Z,19.41
2022-09-15T10:36:14.633Z,19.36
2022-09-15T10:37:14.630Z,19.24
2022-09-15T10:38:14.615Z,19.09
2022-09-15T10:39:14.579Z,18.98
2022-09-15T10:40:14.605Z,18.96
2022-09-15T10:41:14.573Z,18.96
2022-09-15T10:42:14.538Z,18.98
2022-09-15T10:43:14.523Z,18.98
2022-09-15T10:44:14.480Z,19.02
2022-09-15T10:45:14.475Z,19.09
2022-09-15T10:46:14.554Z,19.11
2022-09-15T10:47:14.473Z,19.10
2022-09-15T10:48:14.460Z,19.08
2022-09-15T10:49:14.442Z,19.15
2022-09-15T10:50:14.433Z,19.38
2022-09-15T10:51:14.421Z,19.73
2022-09-15T10:52:14.414Z,19.97
2022-09-15T10:53:14.375Z,19.86
2022-09-15T10:54:14.364Z,19.74
2022-09-15T10:55:14.371Z,19.93
2022-09-15T10:56:14.330Z,20.31
2022-09-15T10:57:14.412Z,20.52
2022-09-15T10:58:14.358Z,20.57
2022-09-15T10:59:14.321Z,20.68
2022-09-15T11:00:14.303Z,20.73
2022-09-15T11:01:14.391Z,20.71
2022-09-15T11:02:14.481Z,20.58
2022-09-15T11:03:14.303Z,20.39
2022-09-15T11:04:14.232Z,20.34
2022-09-15T11:05:16.042Z,20.46
2022-09-15T11:06:14.212Z,20.70
2022-09-15T11:07:14.199Z,21.06
2022-09-15T11:08:14.172Z,21.37
2022-09-15T11:09:14.168Z,21.50
2022-09-15T11:10:14.150Z,21.34
2022-09-15T11:11:14.218Z,21.19
2022-09-15T11:12:14.137Z,21.26
2022-09-15T11:13:14.138Z,21.47
2022-09-15T11:14:14.144Z,21.76
2022-09-15T11:15:14.113Z,22.13
2022-09-15T11:16:14.143Z,22.48
2022-09-15T11:17:14.082Z,22.72
2022-09-15T11:18:14.068Z,22.71
2022-09-15T11:19:14.061Z,22.53
2022-09-15T11:20:14.028Z,22.20
2022-09-15T11:21:14.038Z,21.64
2022-09-15T11:22:14.018Z,21.04
2022-09-15T11:23:13.995Z,20.59
2022-09-15T11:24:13.989Z,20.25
2022-09-15T11:25:14.005Z,19.94
2022-09-15T11:26:13.981Z,19.66
2022-09-15T11:27:14.000Z,19.38
2022-09-15T11:28:13.926Z,19.13
2022-09-15T11:29:13.918Z,18.95
2022-09-15T11:30:13.916Z,18.84
2022-09-15T11:31:14.025Z,18.74
2022-09-15T11:32:13.889Z,18.65
2022-09-15T11:33:13.878Z,18.63
2022-09-15T11:34:13.864Z,18.75
2022-09-15T11:35:13.866Z,18.97
2022-09-15T11:36:13.858Z,19.13
2022-09-15T11:37:13.827Z,19.23
2022-09-15T11:38:13.791Z,19.32
2022-09-15T11:39:13.792Z,19.44
2022-09-15T11:40:14.055Z,19.57
2022-09-15T11:41:13.786Z,19.77
2022-09-15T11:42:13.761Z,20.13
2022-09-15T11:43:13.739Z,20.65
2022-09-15T11:44:16.789Z,21.26
2022-09-15T11:45:13.725Z,21.63
2022-09-15T11:46:13.785Z,21.59
2022-09-15T11:47:13.680Z,21.50
2022-09-15T11:48:13.693Z,21.34
2022-09-15T11:49:13.672Z,20.92
2022-09-15T11:50:13.659Z,20.40
2022-09-15T11:51:13.666Z,19.98
2022-09-15T11:52:13.637Z,19.71
2022-09-15T11:53:13.628Z,19.56
2022-09-15T11:54:13.618Z,19.46
2022-09-15T11:55:13.583Z,19.41
2022-09-15T11:56:13.582Z,19.42
2022-09-15T11:57:13.585Z,19.44
2022-09-15T11:58:14.304Z,19.35
2022-09-15T11:59:13.559Z,19.25
2022-09-15T12:00:13.528Z,19.21
2022-09-15T12:01:13.622Z,19.16
2022-09-15T12:02:13.575Z,19.07
2022-09-15T12:03:13.625Z,18.95
2022-09-15T12:04:13.474Z,18.86
2022-09-15T12:05:13.487Z,18.79
2022-09-15T12:06:13.464Z,18.79
2022-09-15T12:07:14.487Z,18.85
2022-09-15T12:08:13.413Z,18.88
2022-09-15T12:09:13.406Z,18.81
2022-09-15T12:10:13.445Z,18.64
2022-09-15T12:11:13.388Z,18.43
2022-09-15T12:12:13.406Z,18.27
2022-09-15T12:13:13.345Z,18.14
2022-09-15T12:14:13.345Z,18.00
2022-09-15T12:15:13.360Z,17.88
2022-09-15T12:16:13.362Z,17.82
2022-09-15T12:17:13.313Z,17.78
2022-09-15T12:18:34.311Z,17.76
2022-09-15T12:19:13.291Z,17.74
2022-09-15T12:20:13.241Z,17.73
2022-09-15T12:21:13.260Z,17.74
2022-09-15T12:22:13.249Z,17.71
2022-09-15T12:23:13.222Z,17.69
2022-09-15T12:24:13.194Z,17.69
2022-09-15T12:25:13.187Z,17.72
2022-09-15T12:26:13.177Z,17.78
2022-09-15T12:27:13.189Z,17.85
2022-09-15T12:28:13.155Z,17.90
2022-09-15T12:29:13.145Z,18.01
2022-09-15T12:30:13.137Z,18.12
2022-09-15T12:31:13.148Z,18.15
2022-09-15T12:32:13.111Z,18.10
2022-09-15T12:33:13.082Z,18.05
2022-09-15T12:34:13.069Z,18.01
2022-09-15T12:35:13.802Z,17.91
2022-09-15T12:36:13.057Z,17.80
2022-09-15T12:37:13.042Z,17.70
2022-09-15T12:38:13.021Z,17.60
2022-09-15T12:39:13.030Z,17.51
2022-09-15T12:40:13.082Z,17.44
2022-09-15T12:41:13.007Z,17.36
2022-09-15T12:42:12.982Z,17.26
2022-09-15T12:43:12.982Z,17.17
2022-09-15T12:44:12.925Z,17.07
2022-09-15T12:45:12.941Z,16.97
2022-09-15T12:46:12.936Z,16.91
2022-09-15T12:47:12.912Z,16.88
2022-09-15T12:48:12.906Z,16.86
2022-09-15T12:49:12.875Z,16.82
2022-09-15T12:50:12.872Z,16.79
2022-09-15T12:51:12.839Z,16.78
2022-09-15T12:52:12.846Z,16.78
2022-09-15T12:53:12.836Z,16.79
2022-09-15T12:54:12.805Z,16.78
2022-09-15T12:55:12.818Z,16.79
2022-09-15T12:56:12.793Z,16.85
2022-09-15T12:57:12.775Z,17.04